Time;durP1;ratioP1;P1;durP2;ratioP2;P2;SDS_P1;SDS_P2;PMS_P1;PMS_P2;Temp;Humidity;BMP_temperature;BMP_pressure;BME280_temperature;BME280_humidity;BME280_pressure;Samples;Min_cycle;Max_cycle;Signal;HPM_P1;HPM_P2
2023/11/19 00:01:32;;;;;;;18.77;3.20;;;14.30;99.90;;;;;;5046231;28;20196;-86
2023/11/19 00:03:58;;;;;;;1.13;0.50;;;14.40;99.90;;;;;;5028399;28;20196;-86
2023/11/19 00:06:25;;;;;;;0.40;0.40;;;14.40;99.90;;;;;;5029456;28;20585;-86
2023/11/19 00:08:51;;;;;;;2.97;0.60;;;14.30;99.90;;;;;;5029850;28;20229;-86
2023/11/19 00:11:17;;;;;;;16.70;1.57;;;14.30;99.90;;;;;;5029536;28;20625;-87
2023/11/19 00:13:43;;;;;;;7.00;1.20;;;14.30;99.90;;;;;;5028847;28;20223;-86
2023/11/19 00:16:09;;;;;;;17.77;3.80;;;14.20;99.90;;;;;;5046276;28;20209;-87
2023/11/19 00:18:39;;;;;;;11.33;1.10;;;14.30;99.90;;;;;;5045694;28;20255;-86
2023/11/19 00:21:05;;;;;;;3.30;2.27;;;14.30;99.90;;;;;;5029213;28;20236;-86
2023/11/19 00:23:31;;;;;;;1.23;1.13;;;14.20;99.90;;;;;;5044781;28;20236;-86
2023/11/19 00:25:57;;;;;;;3.40;1.03;;;14.30;99.90;;;;;;5045027;28;20223;-86
2023/11/19 00:28:23;;;;;;;4.47;1.50;;;14.20;99.90;;;;;;5028831;28;20185;-85
2023/11/19 00:30:49;;;;;;;2.77;1.37;;;14.30;99.90;;;;;;5045798;28;20235;-85
2023/11/19 00:33:15;;;;;;;0.93;0.87;;;14.30;99.90;;;;;;5012418;28;20213;-85
2023/11/19 00:35:41;;;;;;;3.27;2.80;;;14.40;99.90;;;;;;5028173;28;20690;-86
2023/11/19 00:38:06;;;;;;;4.17;1.40;;;14.40;99.90;;;;;;5012062;28;20232;-84
2023/11/19 00:40:32;;;;;;;7.83;1.00;;;14.30;99.90;;;;;;5028011;28;20790;-86
2023/11/19 00:42:58;;;;;;;4.07;2.30;;;14.40;99.90;;;;;;5012878;28;21187;-85
2023/11/19 00:45:24;;;;;;;3.60;0.83;;;14.40;99.90;;;;;;5012129;28;20221;-85
2023/11/19 00:47:49;;;;;;;0.87;0.73;;;14.30;99.90;;;;;;5044608;28;20237;-84
2023/11/19 00:50:15;;;;;;;7.77;1.07;;;14.30;99.90;;;;;;5045073;28;20215;-85
2023/11/19 00:52:41;;;;;;;11.60;1.70;;;14.30;99.90;;;;;;5012375;28;20263;-86
2023/11/19 00:55:07;;;;;;;3.00;1.53;;;14.20;99.90;;;;;;5027579;28;20197;-87
2023/11/19 00:57:33;;;;;;;2.87;2.63;;;14.20;99.90;;;;;;5044049;28;20217;-85
2023/11/19 00:59:59;;;;;;;2.53;1.40;;;14.20;99.90;;;;;;5044867;28;20218;-85
2023/11/19 01:02:25;;;;;;;3.30;2.50;;;14.20;99.90;;;;;;5044309;28;20240;-86
2023/11/19 01:04:52;;;;;;;4.53;1.13;;;14.20;99.90;;;;;;5028769;28;20306;-85
2023/11/19 01:07:17;;;;;;;34.03;2.23;;;14.30;99.90;;;;;;5028903;28;20221;-85
2023/11/19 01:09:43;;;;;;;13.03;1.30;;;14.30;99.90;;;;;;5043709;28;20575;-86
2023/11/19 01:12:10;;;;;;;7.30;0.93;;;14.30;99.90;;;;;;5028073;28;20565;-85
2023/11/19 01:14:36;;;;;;;1.57;1.07;;;14.20;99.90;;;;;;5044553;28;20656;-85
2023/11/19 01:17:02;;;;;;;10.80;2.90;;;14.20;99.90;;;;;;5027859;28;20308;-85
2023/11/19 01:19:28;;;;;;;8.90;2.50;;;14.20;99.90;;;;;;5045035;28;20189;-85
2023/11/19 01:21:54;;;;;;;5.73;2.27;;;14.20;99.90;;;;;;5033030;28;20244;-85
2023/11/19 01:24:20;;;;;;;11.30;1.77;;;14.10;99.90;;;;;;5048613;28;20221;-86
2023/11/19 01:26:49;;;;;;;3.70;1.23;;;14.10;99.90;;;;;;5048365;28;20237;-85
2023/11/19 01:29:15;;;;;;;2.07;1.50;;;14.00;99.90;;;;;;5023292;28;20233;-85
2023/11/19 01:31:46;;;;;;;22.93;3.30;;;14.00;99.90;;;;;;5031975;28;20201;-86
2023/11/19 01:34:12;;;;;;;3.70;1.27;;;14.00;99.90;;;;;;5040808;28;20236;-86
2023/11/19 01:36:39;;;;;;;8.90;0.90;;;13.90;99.90;;;;;;5015384;28;20696;-85
2023/11/19 01:39:04;;;;;;;7.10;1.77;;;14.00;99.90;;;;;;5047392;28;20220;-86
2023/11/19 01:41:39;;;;;;;2.37;1.37;;;13.90;99.90;;;;;;5065234;28;20221;-84
2023/11/19 01:44:08;;;;;;;8.67;2.17;;;13.90;99.90;;;;;;5031090;28;20743;-86
2023/11/19 01:46:35;;;;;;;5.43;1.60;;;13.90;99.90;;;;;;5047611;28;20300;-85
2023/11/19 01:49:02;;;;;;;1.60;1.17;;;13.80;99.90;;;;;;5046565;28;20181;-85
2023/11/19 01:51:28;;;;;;;2.90;1.60;;;13.80;99.90;;;;;;5065038;28;20232;-85
2023/11/19 01:53:57;;;;;;;9.10;1.07;;;13.80;99.90;;;;;;5047600;28;20906;-86
2023/11/19 01:56:24;;;;;;;3.80;1.37;;;13.70;99.90;;;;;;5040195;28;20221;-84
2023/11/19 01:58:50;;;;;;;9.60;1.63;;;13.70;99.90;;;;;;5047947;28;20213;-86
2023/11/19 02:01:16;;;;;;;3.93;1.53;;;13.70;99.90;;;;;;5031658;28;20196;-86
2023/11/19 02:03:42;;;;;;;7.23;1.87;;;13.70;99.90;;;;;;5031349;28;20652;-86
2023/11/19 02:06:10;;;;;;;7.07;1.73;;;13.60;99.90;;;;;;5065721;28;20213;-85
2023/11/19 02:08:37;;;;;;;8.43;1.80;;;13.70;99.90;;;;;;5047029;28;20225;-86
2023/11/19 02:11:03;;;;;;;2.63;2.43;;;13.70;99.90;;;;;;5047353;28;20221;-85
2023/11/19 02:13:29;;;;;;;2.93;1.20;;;13.60;99.90;;;;;;5064769;28;20204;-86
2023/11/19 02:15:55;;;;;;;7.27;2.67;;;13.70;99.90;;;;;;5047914;28;20196;-85
2023/11/19 02:18:27;;;;;;;0.90;0.90;;;13.50;99.90;;;;;;5046395;28;20291;-85
2023/11/19 02:20:54;;;;;;;11.27;2.10;;;13.50;99.90;;;;;;5063861;28;20229;-86
2023/11/19 02:23:21;;;;;;;0.37;0.37;;;13.50;99.90;;;;;;5065282;28;20217;-86
2023/11/19 02:26:09;;;;;;;2.27;1.77;;;13.40;99.90;;;;;;5065288;28;20219;-86
2023/11/19 02:28:38;;;;;;;5.60;1.90;;;13.50;99.90;;;;;;5047359;28;20193;-86
2023/11/19 02:31:11;;;;;;;8.27;2.57;;;13.40;99.90;;;;;;5030670;28;20193;-85
2023/11/19 02:33:38;;;;;;;2.63;1.30;;;13.50;99.90;;;;;;5046756;28;20229;-85
2023/11/19 02:36:06;;;;;;;6.40;1.10;;;13.40;99.90;;;;;;5047981;28;20225;-86
2023/11/19 02:38:33;;;;;;;11.13;2.63;;;13.40;99.90;;;;;;5030843;28;20232;-85
2023/11/19 02:41:02;;;;;;;6.30;1.50;;;13.40;99.90;;;;;;5045303;28;20213;-86
2023/11/19 02:43:28;;;;;;;7.60;2.20;;;13.40;99.90;;;;;;5029125;28;20625;-85
2023/11/19 02:45:55;;;;;;;5.27;1.47;;;13.40;99.90;;;;;;5013971;28;20208;-85
2023/11/19 02:48:21;;;;;;;8.30;2.23;;;13.40;99.90;;;;;;5046269;28;20241;-86
2023/11/19 02:50:47;;;;;;;7.13;2.53;;;13.40;99.90;;;;;;5046844;28;20243;-85
2023/11/19 02:53:13;;;;;;;4.50;1.07;;;13.40;99.90;;;;;;5030237;28;20703;-85
2023/11/19 02:55:40;;;;;;;4.23;2.03;;;13.40;99.90;;;;;;5046011;28;20185;-86
2023/11/19 02:58:19;;;;;;;7.63;2.13;;;13.40;99.90;;;;;;5046328;28;20199;-86
2023/11/19 03:00:52;;;;;;;4.17;0.60;;;13.40;99.90;;;;;;5061274;28;20322;-86
2023/11/19 03:03:20;;;;;;;6.83;1.43;;;13.40;99.90;;;;;;5030006;28;20295;-85
2023/11/19 03:05:49;;;;;;;2.93;1.57;;;13.40;99.90;;;;;;5029659;28;20312;-86
2023/11/19 03:08:17;;;;;;;2.13;1.93;;;13.40;99.90;;;;;;5045035;28;20229;-87
2023/11/19 03:10:43;;;;;;;0.90;0.83;;;13.40;99.90;;;;;;5022008;28;20232;-85
2023/11/19 03:13:19;;;;;;;16.77;2.97;;;13.50;99.90;;;;;;5064194;28;20193;-85
2023/11/19 03:15:45;;;;;;;17.33;1.43;;;13.50;99.90;;;;;;5045157;28;20278;-85
2023/11/19 03:18:11;;;;;;;14.60;1.83;;;13.40;99.90;;;;;;5029599;28;20221;-86
2023/11/19 03:20:37;;;;;;;17.83;2.63;;;13.40;99.90;;;;;;5012773;28;20239;-85
2023/11/19 03:23:03;;;;;;;18.93;4.17;;;13.40;99.90;;;;;;5026097;28;20232;-86
2023/11/19 03:25:37;;;;;;;1.37;1.27;;;13.40;99.90;;;;;;5027121;28;20185;-87
2023/11/19 03:28:04;;;;;;;12.97;2.40;;;13.40;99.90;;;;;;5014613;28;20850;-85
2023/11/19 03:30:31;;;;;;;9.33;3.93;;;13.50;99.90;;;;;;5043267;28;20213;-85
2023/11/19 03:32:57;;;;;;;3.83;2.93;;;13.40;99.90;;;;;;5062706;28;20224;-85
2023/11/19 03:35:24;;;;;;;6.90;1.23;;;13.40;99.90;;;;;;5043555;28;20221;-85
2023/11/19 03:37:51;;;;;;;1.97;1.87;;;13.40;99.90;;;;;;5045379;28;20747;-85
2023/11/19 03:40:18;;;;;;;13.87;2.37;;;13.30;99.90;;;;;;5030175;28;20811;-85
2023/11/19 03:42:47;;;;;;;1.00;1.00;;;13.40;99.90;;;;;;5029511;28;20351;-85
2023/11/19 03:45:13;;;;;;;0.90;0.90;;;13.40;99.90;;;;;;5064023;28;20231;-86
2023/11/19 03:47:39;;;;;;;5.60;1.33;;;13.40;99.90;;;;;;5045739;28;20236;-85
2023/11/19 03:50:07;;;;;;;3.70;1.93;;;13.40;99.90;;;;;;5028849;28;20205;-85
2023/11/19 03:52:33;;;;;;;21.40;3.70;;;13.40;99.90;;;;;;5062058;28;20274;-85
2023/11/19 03:54:59;;;;;;;11.23;1.93;;;13.30;99.90;;;;;;5064030;28;20228;-86
2023/11/19 03:57:25;;;;;;;8.40;2.13;;;13.30;99.90;;;;;;5063434;28;20304;-84
2023/11/19 03:59:50;;;;;;;1.70;1.60;;;13.30;99.90;;;;;;5044264;28;20217;-86
2023/11/19 04:02:16;;;;;;;3.33;1.50;;;13.30;99.90;;;;;;5028993;28;20221;-85
2023/11/19 04:04:42;;;;;;;4.67;1.70;;;13.30;99.90;;;;;;5027751;28;20217;-85
2023/11/19 04:07:08;;;;;;;8.40;1.80;;;13.20;99.90;;;;;;5045836;28;20706;-85
2023/11/19 04:09:34;;;;;;;10.47;2.13;;;13.20;99.90;;;;;;5028879;28;20561;-85
2023/11/19 04:12:00;;;;;;;6.23;1.33;;;13.20;99.90;;;;;;5043569;28;20317;-86
2023/11/19 04:14:26;;;;;;;7.07;1.43;;;13.20;99.90;;;;;;5059987;28;20231;-86
2023/11/19 04:16:52;;;;;;;19.40;2.13;;;13.10;99.90;;;;;;5061620;28;20217;-85
2023/11/19 04:19:19;;;;;;;5.43;1.27;;;13.10;99.90;;;;;;5061372;28;20192;-85
2023/11/19 04:21:45;;;;;;;12.23;3.60;;;13.10;99.90;;;;;;5042740;28;20217;-85
2023/11/19 04:24:14;;;;;;;2.17;1.63;;;13.10;99.90;;;;;;5042412;28;20863;-85
2023/11/19 04:26:44;;;;;;;3.13;1.70;;;13.20;99.90;;;;;;5041093;28;20244;-85
2023/11/19 04:29:14;;;;;;;1.50;0.90;;;13.20;99.90;;;;;;5061732;28;20700;-84
2023/11/19 04:31:41;;;;;;;35.63;2.63;;;13.20;99.90;;;;;;5044652;28;20656;-84
2023/11/19 04:34:07;;;;;;;41.97;4.27;;;13.20;99.90;;;;;;5063005;28;20194;-85
2023/11/19 04:36:33;;;;;;;13.40;1.97;;;13.30;99.90;;;;;;5028601;28;20248;-86
2023/11/19 04:39:00;;;;;;;1.80;1.30;;;13.30;99.90;;;;;;5061192;28;20243;-85
2023/11/19 04:41:27;;;;;;;3.90;0.60;;;13.30;99.90;;;;;;5042596;28;20216;-86
2023/11/19 04:43:54;;;;;;;6.37;1.83;;;13.30;99.90;;;;;;5044840;28;20228;-85
2023/11/19 04:46:19;;;;;;;1.57;1.47;;;13.40;99.90;;;;;;5029786;28;20262;-87
2023/11/19 04:48:45;;;;;;;4.57;2.43;;;13.40;99.90;;;;;;5062422;28;21727;-84
2023/11/19 04:51:11;;;;;;;5.40;1.83;;;13.40;99.90;;;;;;5044808;28;20332;-86
2023/11/19 04:53:37;;;;;;;2.17;1.10;;;13.40;99.90;;;;;;5028112;28;20307;-87
2023/11/19 04:56:09;;;;;;;2.60;2.17;;;13.40;99.90;;;;;;5031867;28;20676;-86
2023/11/19 04:58:36;;;;;;;14.20;1.83;;;13.40;99.90;;;;;;5032426;28;20848;-85
2023/11/19 05:01:03;;;;;;;13.23;1.80;;;13.30;99.90;;;;;;5065827;28;20354;-85
2023/11/19 05:03:33;;;;;;;1.83;1.73;;;13.30;99.90;;;;;;5030760;28;20213;-84
2023/11/19 05:05:59;;;;;;;9.57;2.63;;;13.40;99.90;;;;;;5047825;28;20236;-86
2023/11/19 05:08:24;;;;;;;3.80;1.83;;;13.40;99.90;;;;;;5032384;28;20228;-88
2023/11/19 05:10:50;;;;;;;7.43;1.90;;;13.40;99.90;;;;;;5047766;28;20711;-86
2023/11/19 05:13:17;;;;;;;15.37;4.57;;;13.30;99.90;;;;;;5049295;28;20276;-87
2023/11/19 05:15:42;;;;;;;3.00;2.47;;;13.30;99.90;;;;;;5049261;28;20228;-84
2023/11/19 05:18:08;;;;;;;4.17;2.33;;;13.30;99.90;;;;;;5048779;28;20247;-86
2023/11/19 05:20:34;;;;;;;10.03;2.00;;;13.20;99.90;;;;;;5046082;28;20256;-86
2023/11/19 05:23:00;;;;;;;18.97;2.93;;;13.20;99.90;;;;;;5032464;28;20228;-87
2023/11/19 05:25:26;;;;;;;2.67;1.70;;;13.20;99.90;;;;;;5066714;28;20190;-87
2023/11/19 05:27:53;;;;;;;10.40;2.23;;;13.20;99.90;;;;;;5065346;28;20583;-86
2023/11/19 05:30:18;;;;;;;4.13;2.23;;;13.20;99.90;;;;;;5049131;28;20275;-86
2023/11/19 05:32:44;;;;;;;25.97;1.90;;;13.10;99.90;;;;;;5015626;28;20221;-85
2023/11/19 05:35:11;;;;;;;3.73;2.27;;;13.20;99.90;;;;;;5065356;28;20298;-85
2023/11/19 05:37:37;;;;;;;3.10;1.67;;;13.10;99.90;;;;;;5047148;28;20181;-84
2023/11/19 05:40:06;;;;;;;11.37;2.93;;;13.10;99.90;;;;;;5066082;28;20257;-84
2023/11/19 05:42:32;;;;;;;2.67;2.43;;;13.10;99.90;;;;;;5046449;28;20263;-86
2023/11/19 05:44:58;;;;;;;7.00;4.27;;;13.10;99.90;;;;;;5045885;28;20356;-85
2023/11/19 05:47:23;;;;;;;9.60;3.50;;;13.10;99.90;;;;;;5046835;28;20245;-86
2023/11/19 05:49:49;;;;;;;4.07;1.03;;;13.10;99.90;;;;;;5045319;28;21006;-85
2023/11/19 05:52:15;;;;;;;8.83;1.20;;;13.10;99.90;;;;;;5047555;28;20300;-86
2023/11/19 05:54:41;;;;;;;8.93;1.47;;;13.00;99.90;;;;;;5047051;28;20217;-85
2023/11/19 05:57:10;;;;;;;9.60;2.20;;;13.00;99.90;;;;;;5046989;28;20308;-86
2023/11/19 05:59:36;;;;;;;1.90;0.83;;;13.00;99.90;;;;;;5047396;28;20231;-84
2023/11/19 06:02:02;;;;;;;5.97;1.67;;;13.00;99.90;;;;;;5030016;28;20219;-85
2023/11/19 06:04:28;;;;;;;6.13;1.23;;;13.00;99.90;;;;;;5030419;28;20178;-86
2023/11/19 06:06:55;;;;;;;4.33;1.70;;;13.00;99.90;;;;;;5031045;28;20292;-85
2023/11/19 06:09:22;;;;;;;6.13;1.77;;;13.00;99.90;;;;;;5046677;28;20247;-85
2023/11/19 06:11:52;;;;;;;12.77;1.97;;;13.00;99.90;;;;;;5045609;28;20217;-86
2023/11/19 06:14:18;;;;;;;5.43;1.67;;;13.00;99.90;;;;;;5045469;28;20817;-86
2023/11/19 06:16:44;;;;;;;2.70;1.03;;;13.00;99.90;;;;;;5046454;28;20249;-85
2023/11/19 06:19:11;;;;;;;7.20;1.10;;;12.90;99.90;;;;;;5065221;28;20323;-86
2023/11/19 06:21:37;;;;;;;22.00;2.77;;;12.90;99.90;;;;;;5014053;28;20704;-84
2023/11/19 06:24:03;;;;;;;4.07;1.87;;;13.00;99.90;;;;;;5046808;28;20274;-85
2023/11/19 06:26:32;;;;;;;4.60;1.37;;;13.00;99.90;;;;;;5046557;28;20575;-87
2023/11/19 06:28:58;;;;;;;9.43;1.20;;;13.00;99.90;;;;;;5030313;28;20435;-84
2023/11/19 06:31:24;;;;;;;5.13;2.77;;;13.00;99.90;;;;;;5063298;28;20740;-86
2023/11/19 06:33:49;;;;;;;4.73;1.30;;;12.90;99.90;;;;;;5030706;28;20633;-86
2023/11/19 06:36:18;;;;;;;15.77;2.37;;;12.90;99.90;;;;;;5047231;28;20232;-86
2023/11/19 06:38:44;;;;;;;3.07;2.83;;;12.80;99.90;;;;;;5030314;28;20312;-86
2023/11/19 06:41:11;;;;;;;2.70;2.00;;;12.90;99.90;;;;;;5030077;28;20326;-85
2023/11/19 06:43:37;;;;;;;22.00;2.17;;;12.90;99.90;;;;;;5044699;28;20815;-86
2023/11/19 06:46:05;;;;;;;0.97;0.83;;;12.80;99.90;;;;;;5046964;28;20193;-86
2023/11/19 06:48:32;;;;;;;2.40;1.43;;;12.80;99.90;;;;;;5044775;28;20236;-85
2023/11/19 06:50:59;;;;;;;7.50;1.87;;;12.90;99.90;;;;;;5029006;28;20217;-85
2023/11/19 06:53:25;;;;;;;3.73;2.10;;;12.80;99.90;;;;;;5045303;28;20233;-86
2023/11/19 06:55:50;;;;;;;3.90;2.10;;;12.80;99.90;;;;;;5062472;28;20228;-84
2023/11/19 06:58:17;;;;;;;11.23;2.53;;;12.80;99.90;;;;;;5028859;28;20732;-85
2023/11/19 07:00:44;;;;;;;6.10;1.43;;;12.80;99.90;;;;;;5027158;28;20691;-87
2023/11/19 07:03:10;;;;;;;4.93;1.50;;;12.80;99.90;;;;;;5062950;28;20328;-86
2023/11/19 07:05:39;;;;;;;17.33;3.70;;;12.70;99.90;;;;;;5025308;28;20591;-87
2023/11/19 07:08:07;;;;;;;5.10;2.70;;;12.70;99.90;;;;;;5025701;28;20371;-85
2023/11/19 07:10:33;;;;;;;5.87;2.37;;;12.70;99.90;;;;;;5060570;28;21091;-87
2023/11/19 07:13:00;;;;;;;10.40;1.97;;;12.80;99.90;;;;;;5044911;28;20197;-86
2023/11/19 07:15:26;;;;;;;2.73;1.00;;;12.70;99.90;;;;;;5043865;28;20224;-85
2023/11/19 07:17:54;;;;;;;23.77;2.53;;;12.70;99.90;;;;;;5061337;28;20233;-85
2023/11/19 07:20:20;;;;;;;14.03;1.33;;;12.70;99.90;;;;;;5062041;28;20259;-84
2023/11/19 07:22:45;;;;;;;11.13;1.03;;;12.70;99.90;;;;;;5027195;28;20766;-84
2023/11/19 07:25:13;;;;;;;0.80;0.80;;;12.80;99.90;;;;;;5042989;28;20201;-84
2023/11/19 07:27:39;;;;;;;16.13;2.50;;;12.80;99.90;;;;;;5043310;28;20287;-84
2023/11/19 07:30:09;;;;;;;6.37;1.63;;;12.80;99.90;;;;;;5026711;28;20221;-85
2023/11/19 07:32:34;;;;;;;2.53;1.90;;;12.80;99.90;;;;;;5026679;28;20225;-86
2023/11/19 07:35:00;;;;;;;0.70;0.53;;;12.80;99.90;;;;;;5026058;28;20236;-86
2023/11/19 07:37:26;;;;;;;19.30;2.03;;;12.70;99.90;;;;;;5044758;28;20193;-84
2023/11/19 07:39:52;;;;;;;0.97;0.97;;;12.80;99.90;;;;;;5027190;28;20984;-84
2023/11/19 07:42:18;;;;;;;10.00;1.57;;;12.80;99.90;;;;;;5042747;28;20213;-86
2023/11/19 07:44:44;;;;;;;6.47;2.50;;;12.90;99.90;;;;;;5023836;28;20221;-83
2023/11/19 07:47:10;;;;;;;5.93;1.90;;;12.90;99.90;;;;;;5040733;28;20260;-84
2023/11/19 07:49:36;;;;;;;3.97;2.00;;;12.90;99.90;;;;;;5040894;28;20225;-85
2023/11/19 07:52:02;;;;;;;4.20;0.50;;;12.90;99.90;;;;;;5024399;28;20296;-83
2023/11/19 07:56:00;;;;;;;5.80;1.90;;;12.90;99.90;;;;;;4934986;27;4335710;-84
2023/11/19 07:58:25;;;;;;;4.93;1.50;;;13.00;99.90;;;;;;5055187;28;20706;-83
2023/11/19 08:00:52;;;;;;;5.97;2.77;;;13.00;99.90;;;;;;5036885;28;20197;-85
2023/11/19 08:03:18;;;;;;;9.10;1.67;;;13.00;99.90;;;;;;5052904;28;20236;-84
2023/11/19 08:05:46;;;;;;;7.40;1.53;;;13.00;99.90;;;;;;5036671;28;20221;-84
2023/11/19 08:08:12;;;;;;;4.13;1.63;;;13.00;99.90;;;;;;5061427;28;20236;-86
2023/11/19 08:10:38;;;;;;;1.53;1.43;;;13.00;99.90;;;;;;5072941;28;20185;-85
2023/11/19 08:13:03;;;;;;;5.27;1.13;;;13.00;99.90;;;;;;5073269;28;20193;-83
2023/11/19 08:15:30;;;;;;;6.27;1.87;;;13.00;99.90;;;;;;5073594;28;20747;-84
2023/11/19 08:17:55;;;;;;;1.93;1.20;;;13.00;99.90;;;;;;5073218;28;20299;-84
2023/11/19 08:20:22;;;;;;;10.50;2.63;;;13.00;99.90;;;;;;5073254;28;20242;-84
2023/11/19 08:22:48;;;;;;;0.43;0.20;;;13.10;99.90;;;;;;5073231;28;20247;-83
2023/11/19 08:25:14;;;;;;;10.67;2.87;;;13.10;99.90;;;;;;5076445;28;20235;-84
2023/11/19 08:27:40;;;;;;;11.40;5.37;;;13.20;99.90;;;;;;5060830;28;20307;-86
2023/11/19 08:30:06;;;;;;;16.20;2.80;;;13.20;99.90;;;;;;5076521;28;20243;-84
2023/11/19 08:32:32;;;;;;;2.07;1.00;;;13.20;99.90;;;;;;5078857;28;20262;-85
2023/11/19 08:34:58;;;;;;;6.73;0.70;;;13.30;99.90;;;;;;5067817;28;20792;-85
2023/11/19 08:37:24;;;;;;;13.17;1.80;;;13.30;99.90;;;;;;5077949;28;20189;-84
2023/11/19 08:39:50;;;;;;;6.43;1.73;;;13.30;99.90;;;;;;5075315;28;20331;-85
2023/11/19 08:42:17;;;;;;;4.43;1.83;;;13.30;99.90;;;;;;5076631;28;20217;-84
2023/11/19 08:44:44;;;;;;;4.00;1.23;;;13.30;99.90;;;;;;5076823;28;20220;-85
2023/11/19 08:47:13;;;;;;;3.67;3.37;;;13.30;99.90;;;;;;5076335;28;20228;-87
2023/11/19 08:49:41;;;;;;;3.03;2.37;;;13.40;99.90;;;;;;5059319;28;20207;-85
2023/11/19 08:52:07;;;;;;;6.03;1.23;;;13.50;99.90;;;;;;5059722;28;20196;-85
2023/11/19 08:54:33;;;;;;;8.83;5.30;;;13.50;99.90;;;;;;5079048;28;20240;-86
2023/11/19 08:57:00;;;;;;;6.00;1.30;;;13.50;99.90;;;;;;5058524;28;20220;-87
2023/11/19 08:59:26;;;;;;;17.23;0.77;;;13.50;99.90;;;;;;5066656;28;20669;-88
2023/11/19 09:01:51;;;;;;;9.37;2.10;;;13.50;99.90;;;;;;5089435;28;20224;-87
2023/11/19 09:04:17;;;;;;;6.57;2.70;;;13.50;99.90;;;;;;5057597;28;20196;-87
2023/11/19 09:06:44;;;;;;;6.27;1.40;;;13.50;99.90;;;;;;5047818;28;20209;-87
2023/11/19 09:09:09;;;;;;;2.80;1.23;;;13.50;99.90;;;;;;5044707;28;20228;-87
2023/11/19 09:11:36;;;;;;;7.33;1.73;;;13.50;99.90;;;;;;5044538;28;20217;-86
2023/11/19 09:14:02;;;;;;;4.43;1.93;;;13.50;99.90;;;;;;5060842;28;20335;-86
2023/11/19 09:16:28;;;;;;;4.97;1.13;;;13.50;99.90;;;;;;5044607;28;20205;-87
2023/11/19 09:18:53;;;;;;;5.67;1.30;;;13.50;99.90;;;;;;5044042;28;20220;-86
2023/11/19 09:21:19;;;;;;;7.97;1.90;;;13.50;99.90;;;;;;5061440;28;20241;-86
2023/11/19 09:23:47;;;;;;;3.33;1.40;;;13.50;99.90;;;;;;5064249;28;20682;-89
2023/11/19 09:26:13;;;;;;;2.73;2.53;;;13.50;99.90;;;;;;5048209;28;20327;-86
2023/11/19 09:28:39;;;;;;;5.07;1.67;;;13.60;99.90;;;;;;5064598;28;20220;-86
2023/11/19 09:31:18;;;;;;;1.80;1.10;;;13.60;99.90;;;;;;5067333;28;20625;-87
2023/11/19 09:33:45;;;;;;;15.67;3.60;;;13.70;99.90;;;;;;5048091;28;20304;-87
2023/11/19 09:36:14;;;;;;;1.83;1.17;;;13.70;99.90;;;;;;5081144;28;20229;-86
2023/11/19 09:38:46;;;;;;;10.00;1.07;;;13.70;99.90;;;;;;5064329;28;20217;-85
2023/11/19 09:41:13;;;;;;;6.10;1.33;;;13.80;99.90;;;;;;5048545;28;20294;-87
2023/11/19 09:43:42;;;;;;;2.17;0.63;;;13.80;99.90;;;;;;5061869;28;20244;-85
2023/11/19 09:46:16;;;;;;;3.07;0.73;;;13.70;99.90;;;;;;5054876;28;20251;-89
2023/11/19 09:48:42;;;;;;;6.00;2.33;;;13.70;99.90;;;;;;5047779;28;20860;-88
2023/11/19 09:51:10;;;;;;;34.60;3.67;;;13.70;99.90;;;;;;5064527;28;20308;-87
2023/11/19 09:53:37;;;;;;;0.47;0.43;;;13.80;99.90;;;;;;5065260;28;20221;-85
2023/11/19 09:56:04;;;;;;;2.03;1.53;;;13.80;99.90;;;;;;5064650;28;20270;-87
2023/11/19 09:58:31;;;;;;;2.33;1.67;;;13.90;99.90;;;;;;5057141;28;20193;-87
2023/11/19 10:01:00;;;;;;;5.10;1.23;;;14.00;99.90;;;;;;5063314;28;20236;-86
2023/11/19 10:03:34;;;;;;;5.23;1.60;;;14.00;99.90;;;;;;5064626;28;20237;-84
2023/11/19 10:06:01;;;;;;;8.60;2.17;;;14.10;99.90;;;;;;5063574;28;20221;-86
2023/11/19 10:08:30;;;;;;;1.10;1.00;;;14.00;99.90;;;;;;5064763;28;20232;-87
2023/11/19 10:10:56;;;;;;;9.80;1.00;;;14.00;99.90;;;;;;5064275;28;20225;-86
2023/11/19 10:13:27;;;;;;;3.50;2.17;;;13.90;99.90;;;;;;5065554;28;20712;-87
2023/11/19 10:15:53;;;;;;;3.70;1.13;;;13.80;99.90;;;;;;5064442;28;20244;-85
2023/11/19 10:18:24;;;;;;;13.50;2.83;;;13.70;99.90;;;;;;5062947;28;20209;-88
2023/11/19 10:20:53;;;;;;;5.03;1.50;;;13.60;99.90;;;;;;5065733;28;20301;-87
2023/11/19 10:23:19;;;;;;;3.80;1.27;;;13.70;99.90;;;;;;5056579;28;20228;-87
2023/11/19 10:25:45;;;;;;;7.57;2.33;;;13.60;99.90;;;;;;5065063;28;20224;-86
2023/11/19 10:28:11;;;;;;;4.07;1.03;;;13.60;99.90;;;;;;5063763;28;20227;-87
2023/11/19 10:30:36;;;;;;;11.27;1.97;;;13.70;99.90;;;;;;5063247;28;20312;-87
2023/11/19 10:33:05;;;;;;;5.93;3.20;;;13.70;99.90;;;;;;5046964;28;20217;-88
2023/11/19 10:35:32;;;;;;;3.60;1.80;;;13.70;99.90;;;;;;5061554;28;20225;-88
2023/11/19 10:38:00;;;;;;;8.43;1.27;;;13.70;99.90;;;;;;5063935;28;20688;-87
2023/11/19 10:40:39;;;;;;;10.20;1.77;;;13.80;99.90;;;;;;5064810;28;20304;-87
2023/11/19 10:43:07;;;;;;;4.73;1.00;;;13.80;99.90;;;;;;5065288;28;20185;-87
2023/11/19 10:45:33;;;;;;;1.73;0.87;;;13.90;99.90;;;;;;5080597;28;20224;-87
2023/11/19 10:48:00;;;;;;;2.00;1.10;;;13.90;99.90;;;;;;5063795;28;20217;-86
2023/11/19 10:50:27;;;;;;;8.83;1.83;;;13.90;99.90;;;;;;5064350;28;20213;-87
2023/11/19 10:52:59;;;;;;;8.73;2.13;;;13.80;99.90;;;;;;5063082;28;20225;-88
2023/11/19 10:55:30;;;;;;;2.77;0.67;;;13.80;99.90;;;;;;5046960;28;20264;-87
2023/11/19 10:58:03;;;;;;;13.47;2.40;;;13.80;99.90;;;;;;5064548;28;20316;-86
2023/11/19 11:00:39;;;;;;;10.70;2.37;;;13.80;99.90;;;;;;5062918;28;20228;-87
2023/11/19 11:03:18;;;;;;;4.27;1.30;;;13.80;99.90;;;;;;5062055;28;20221;-85
2023/11/19 11:05:47;;;;;;;3.03;1.13;;;13.80;99.90;;;;;;5063892;28;20717;-85
2023/11/19 11:08:13;;;;;;;1.03;0.53;;;13.80;99.90;;;;;;5062945;28;20775;-87
2023/11/19 11:10:52;;;;;;;0.90;0.90;;;13.80;99.90;;;;;;5063336;28;20209;-87
2023/11/19 11:13:18;;;;;;;4.67;2.20;;;13.80;99.90;;;;;;5063960;28;20173;-87
2023/11/19 11:15:46;;;;;;;18.70;2.67;;;13.80;99.90;;;;;;5063758;28;20223;-86
2023/11/19 11:18:13;;;;;;;4.60;0.63;;;13.80;99.90;;;;;;5063177;28;20278;-87
2023/11/19 11:20:40;;;;;;;1.53;1.00;;;13.90;99.90;;;;;;5063638;28;20235;-88
2023/11/19 11:23:20;;;;;;;6.20;1.23;;;13.90;99.90;;;;;;5046470;28;20221;-88
2023/11/19 11:26:07;;;;;;;1.37;0.83;;;13.90;99.90;;;;;;5065001;28;20626;-86
2023/11/19 11:28:33;;;;;;;18.23;1.60;;;13.90;99.90;;;;;;5059788;28;20238;-87
2023/11/19 11:31:10;;;;;;;3.43;1.50;;;14.00;99.90;;;;;;5062729;28;20272;-88
2023/11/19 11:34:00;;;;;;;1.73;0.73;;;13.90;99.90;;;;;;5054568;28;20225;-89
2023/11/19 11:36:26;;;;;;;1.77;1.37;;;13.70;99.90;;;;;;5062791;28;21037;-88
2023/11/19 11:38:53;;;;;;;1.63;0.70;;;13.50;99.90;;;;;;5063334;28;20225;-88
2023/11/19 11:41:24;;;;;;;0.70;0.70;;;13.30;99.90;;;;;;5061785;28;20308;-87
2023/11/19 11:43:51;;;;;;;2.70;0.70;;;13.10;99.90;;;;;;5046303;28;20235;-86
2023/11/19 11:46:40;;;;;;;2.60;1.00;;;13.10;99.90;;;;;;5063528;28;20193;-87
2023/11/19 11:49:07;;;;;;;0.90;0.50;;;13.10;99.90;;;;;;5046318;28;20721;-85
2023/11/19 11:52:00;;;;;;;18.97;2.90;;;13.10;99.90;;;;;;5043685;28;20252;-84
2023/11/19 11:54:27;;;;;;;7.43;1.63;;;13.10;99.90;;;;;;5051697;28;20241;-81
2023/11/19 11:57:11;;;;;;;9.83;1.77;;;13.20;99.90;;;;;;5039413;28;20928;-82
2023/11/19 11:59:42;;;;;;;12.40;0.90;;;13.40;99.90;;;;;;5057856;28;20248;-83
2023/11/19 12:02:10;;;;;;;3.40;1.90;;;13.50;99.90;;;;;;5055803;28;20236;-83
2023/11/19 12:04:36;;;;;;;7.10;3.10;;;13.60;99.90;;;;;;5055342;28;20633;-83
2023/11/19 12:07:19;;;;;;;3.23;1.33;;;13.60;99.90;;;;;;5056275;28;20189;-81
2023/11/19 12:09:52;;;;;;;2.73;1.63;;;13.60;99.90;;;;;;5056618;28;20220;-82
2023/11/19 12:12:26;;;;;;;4.27;1.33;;;13.60;99.90;;;;;;5039612;28;20319;-83
2023/11/19 12:15:06;;;;;;;9.07;1.83;;;13.60;99.90;;;;;;5056129;28;20887;-82
2023/11/19 12:17:41;;;;;;;9.93;1.97;;;13.70;99.90;;;;;;5055313;28;20216;-82
2023/11/19 12:20:11;;;;;;;3.87;1.30;;;13.60;99.90;;;;;;5056813;28;20251;-82
2023/11/19 12:22:38;;;;;;;1.80;1.30;;;13.60;99.90;;;;;;5039929;28;20181;-81
2023/11/19 12:25:06;;;;;;;14.87;1.53;;;13.60;99.90;;;;;;5056389;28;20250;-83
2023/11/19 12:27:33;;;;;;;2.27;1.23;;;13.50;99.90;;;;;;5056179;28;20221;-82
2023/11/19 12:30:00;;;;;;;8.40;2.10;;;13.50;99.90;;;;;;5040088;28;20583;-82
2023/11/19 12:32:26;;;;;;;4.00;1.93;;;13.50;99.90;;;;;;5071972;28;20244;-82
2023/11/19 12:34:51;;;;;;;6.13;0.93;;;13.50;99.90;;;;;;5040186;28;20723;-83
2023/11/19 12:37:17;;;;;;;1.63;1.23;;;13.50;99.90;;;;;;5055581;28;20569;-82
2023/11/19 12:39:43;;;;;;;0.23;0.23;;;13.50;99.90;;;;;;5053584;28;20221;-81
2023/11/19 12:42:09;;;;;;;4.47;1.40;;;13.40;99.90;;;;;;5041493;28;20224;-82
2023/11/19 12:44:35;;;;;;;8.20;1.40;;;13.40;99.90;;;;;;5043570;28;20217;-83
2023/11/19 12:47:10;;;;;;;3.70;1.13;;;13.40;99.90;;;;;;5042969;28;21508;-84
2023/11/19 12:49:35;;;;;;;5.03;1.87;;;13.40;99.90;;;;;;5043156;28;20876;-82